createdAt,value
2023-07-02T00:00:07.396Z,95886.47
2023-07-02T00:02:34.576Z,95882.22
2023-07-02T00:05:01.460Z,95893.13
2023-07-02T00:07:29.501Z,95880.56
2023-07-02T00:09:56.484Z,95879.00
2023-07-02T00:12:23.398Z,95886.19
2023-07-02T00:14:53.920Z,95887.03
2023-07-02T00:17:21.709Z,95892.56
2023-07-02T00:19:52.813Z,95891.28
2023-07-02T00:22:20.336Z,95885.13
2023-07-02T00:24:47.384Z,95887.25
2023-07-02T00:27:14.395Z,95892.84
2023-07-02T00:29:41.357Z,95892.81
2023-07-02T00:32:08.269Z,95899.28
2023-07-02T00:34:35.222Z,95895.03
2023-07-02T00:37:02.075Z,95902.50
2023-07-02T00:39:29.051Z,95894.47
2023-07-02T00:42:03.832Z,95897.69
2023-07-02T00:44:30.836Z,95899.25
2023-07-02T00:46:58.058Z,95910.75
2023-07-02T00:49:25.530Z,95918.44
2023-07-02T00:51:52.662Z,95910.22
2023-07-02T00:54:19.536Z,95912.09
2023-07-02T00:56:47.156Z,95913.44
2023-07-02T00:59:14.279Z,95912.69
2023-07-02T01:01:41.311Z,95927.63
2023-07-02T01:04:13.439Z,95907.28
2023-07-02T01:06:43.381Z,95907.81
2023-07-02T01:09:11.256Z,95907.84
2023-07-02T01:11:45.215Z,95913.47
2023-07-02T01:14:35.073Z,95910.00
2023-07-02T01:17:07.015Z,95908.94
2023-07-02T01:19:52.596Z,95900.13
2023-07-02T01:22:22.401Z,95903.06
2023-07-02T01:24:50.507Z,95907.88
2023-07-02T01:27:17.751Z,95903.59
2023-07-02T01:29:47.775Z,95911.34
2023-07-02T01:32:17.751Z,95908.41
2023-07-02T01:34:50.480Z,95898.81
2023-07-02T01:37:20.664Z,95894.00
2023-07-02T01:39:48.234Z,95897.72
2023-07-02T01:42:18.189Z,95903.59
2023-07-02T01:44:50.500Z,95909.47
2023-07-02T01:47:17.803Z,95906.53
2023-07-02T01:49:44.908Z,95915.34
2023-07-02T01:52:11.849Z,95918.81
2023-07-02T01:54:38.826Z,95922.81
2023-07-02T01:57:06.177Z,95919.63
2023-07-02T01:59:33.133Z,95926.03
2023-07-02T02:02:00.068Z,95919.56
2023-07-02T02:04:27.182Z,95918.53
2023-07-02T02:06:54.523Z,95923.91
2023-07-02T02:09:21.606Z,95919.06
2023-07-02T02:11:53.483Z,95916.88
2023-07-02T02:14:20.732Z,95921.75
2023-07-02T02:16:47.767Z,95915.88
2023-07-02T02:19:15.980Z,95915.63
2023-07-02T02:21:44.069Z,95918.53
2023-07-02T02:24:11.380Z,95916.41
2023-07-02T02:26:38.316Z,95914.53
2023-07-02T02:29:05.447Z,95919.06
2023-07-02T02:31:32.460Z,95920.66
2023-07-02T02:33:59.454Z,95918.53
2023-07-02T02:36:26.941Z,95916.66
2023-07-02T02:38:53.847Z,95930.28
2023-07-02T02:41:20.724Z,95923.34
2023-07-02T02:43:47.600Z,95930.81
2023-07-02T02:46:25.229Z,95966.84
2023-07-02T02:48:52.861Z,95968.16
2023-07-02T02:51:19.822Z,95970.75
2023-07-02T02:53:47.418Z,95976.50
2023-07-02T02:56:14.533Z,95961.56
2023-07-02T02:58:41.698Z,95953.53
2023-07-02T03:01:11.997Z,95955.34
2023-07-02T03:03:46.401Z,95956.69
2023-07-02T03:06:15.853Z,95950.97
2023-07-02T03:08:42.911Z,95965.25
2023-07-02T03:11:09.910Z,95965.56
2023-07-02T03:13:36.849Z,95964.53
2023-07-02T03:16:03.967Z,95966.41
2023-07-02T03:18:30.923Z,95969.28
2023-07-02T03:20:57.849Z,95981.00
2023-07-02T03:23:24.881Z,95982.13
2023-07-02T03:25:51.743Z,95978.66
2023-07-02T03:28:18.726Z,95981.59
2023-07-02T03:30:45.898Z,95981.59
2023-07-02T03:33:12.922Z,95986.41
2023-07-02T03:35:39.818Z,95988.53
2023-07-02T03:38:07.381Z,95996.00
2023-07-02T03:40:34.348Z,95988.53
2023-07-02T03:43:01.226Z,95991.75
2023-07-02T03:45:28.210Z,95996.03
2023-07-02T03:47:55.486Z,95983.22
2023-07-02T03:50:22.566Z,95993.13
2023-07-02T03:52:49.449Z,95991.75
2023-07-02T03:55:16.512Z,95991.75
2023-07-02T03:57:43.421Z,95997.69
2023-07-02T04:00:12.316Z,95996.06
2023-07-02T04:02:39.288Z,96011.56
2023-07-02T04:05:07.244Z,96003.16
2023-07-02T04:07:34.300Z,96004.03
2023-07-02T04:10:01.200Z,96007.75
2023-07-02T04:12:28.990Z,96005.44
2023-07-02T04:14:55.905Z,96006.25
2023-07-02T04:17:23.000Z,96008.34
2023-07-02T04:19:50.168Z,96022.25
2023-07-02T04:22:17.220Z,96012.69
2023-07-02T04:24:46.769Z,96015.06
2023-07-02T04:27:46.885Z,96011.13
2023-07-02T04:30:01.874Z,96015.34
2023-07-02T04:32:28.765Z,96025.53
2023-07-02T04:34:55.671Z,96017.53
2023-07-02T04:37:23.172Z,96025.53
2023-07-02T04:39:50.150Z,96027.13
2023-07-02T04:42:17.049Z,96019.63
2023-07-02T04:44:44.648Z,96028.34
2023-07-02T04:47:12.195Z,96024.00
2023-07-02T04:49:39.973Z,96031.69
2023-07-02T04:52:07.301Z,96031.38
2023-07-02T04:54:34.188Z,96037.19
2023-07-02T04:57:01.139Z,96032.09
2023-07-02T04:59:28.107Z,96026.09
2023-07-02T05:01:55.023Z,96038.13
2023-07-02T05:04:22.245Z,96032.63
2023-07-02T05:06:49.208Z,96041.41
2023-07-02T05:09:16.294Z,96044.38
2023-07-02T05:11:43.169Z,96048.44
2023-07-02T05:14:10.082Z,96054.53
2023-07-02T05:16:37.003Z,96051.25
2023-07-02T05:19:03.904Z,96058.78
2023-07-02T05:21:30.766Z,96062.84
2023-07-02T05:23:57.698Z,96067.75
2023-07-02T05:26:24.630Z,96074.19
2023-07-02T05:28:51.572Z,96076.41
2023-07-02T05:31:18.549Z,96067.00
2023-07-02T05:33:45.527Z,96078.41
2023-07-02T05:36:12.425Z,96079.84
2023-07-02T05:38:39.261Z,96084.72
2023-07-02T05:41:06.235Z,96081.00
2023-07-02T05:43:33.101Z,96077.75
2023-07-02T05:46:03.687Z,96078.81
2023-07-02T05:48:30.633Z,96073.31
2023-07-02T05:50:57.569Z,96069.63
2023-07-02T05:53:24.470Z,96070.19
2023-07-02T05:55:51.361Z,96065.94
2023-07-02T05:58:18.228Z,96064.31
2023-07-02T06:00:50.728Z,96071.78
2023-07-02T06:03:21.668Z,96075.25
2023-07-02T06:05:52.901Z,96077.13
2023-07-02T06:08:20.029Z,96070.19
2023-07-02T06:10:49.296Z,96078.75
2023-07-02T06:13:16.688Z,96083.03
2023-07-02T06:15:44.186Z,96091.00
2023-07-02T06:18:11.272Z,96091.28
2023-07-02T06:20:38.648Z,96105.97
2023-07-02T06:23:05.599Z,96112.84
2023-07-02T06:25:32.871Z,96121.75
2023-07-02T06:28:00.891Z,96117.88
2023-07-02T06:30:27.982Z,96122.94
2023-07-02T06:32:55.494Z,96122.03
2023-07-02T06:35:22.660Z,96127.72
2023-07-02T06:37:49.596Z,96120.13
2023-07-02T06:40:16.547Z,96110.97
2023-07-02T06:42:43.446Z,96111.69
2023-07-02T06:45:10.736Z,96107.47
2023-07-02T06:47:38.836Z,96116.88
2023-07-02T06:50:06.318Z,96116.66
2023-07-02T06:52:33.176Z,96113.97
2023-07-02T06:55:00.058Z,96126.25
2023-07-02T06:57:27.010Z,96122.53
2023-07-02T06:59:53.935Z,96125.66
2023-07-02T07:02:20.962Z,96123.59
2023-07-02T07:04:47.919Z,96128.94
2023-07-02T07:07:15.445Z,96132.72
2023-07-02T07:09:42.353Z,96132.97
2023-07-02T07:12:09.395Z,96140.75
2023-07-02T07:14:36.392Z,96139.16
2023-07-02T07:17:03.955Z,96139.66
2023-07-02T07:19:30.887Z,96147.16
2023-07-02T07:21:58.804Z,96140.41
2023-07-02T07:24:25.701Z,96147.63
2023-07-02T07:26:52.611Z,96147.88
2023-07-02T07:29:19.578Z,96159.06
2023-07-02T07:31:47.546Z,96158.75
2023-07-02T07:34:14.577Z,96157.69
2023-07-02T07:36:41.489Z,96155.63
2023-07-02T07:39:08.467Z,96151.75
2023-07-02T07:41:35.442Z,96149.34
2023-07-02T07:44:02.658Z,96153.38
2023-07-02T07:46:29.636Z,96152.75
2023-07-02T07:48:56.647Z,96165.31
2023-07-02T07:51:23.600Z,96144.31
2023-07-02T07:53:50.549Z,96158.81
2023-07-02T07:56:17.422Z,96164.88
2023-07-02T07:58:44.302Z,96165.69
2023-07-02T08:01:11.510Z,96162.53
2023-07-02T08:03:39.838Z,96177.00
2023-07-02T08:06:07.180Z,96185.75
2023-07-02T08:08:34.089Z,96179.97
2023-07-02T08:11:01.029Z,96185.25
2023-07-02T08:13:27.950Z,96204.25
2023-07-02T08:15:54.934Z,96189.28
2023-07-02T08:18:21.831Z,96189.16
2023-07-02T08:20:49.179Z,96186.59
2023-07-02T08:23:16.274Z,96184.28
2023-07-02T08:25:43.315Z,96188.88
2023-07-02T08:28:10.237Z,96190.69
2023-07-02T08:30:37.283Z,96193.00
2023-07-02T08:33:04.226Z,96194.72
2023-07-02T08:35:31.544Z,96205.94
2023-07-02T08:37:58.464Z,96193.38
2023-07-02T08:40:25.479Z,96196.06
2023-07-02T08:42:52.429Z,96189.22
2023-07-02T08:45:20.911Z,96199.09
2023-07-02T08:47:48.011Z,96189.84
2023-07-02T08:50:15.342Z,96190.09
2023-07-02T08:52:44.034Z,96180.34
2023-07-02T08:55:10.957Z,96188.81
2023-07-02T08:57:37.856Z,96194.72
2023-07-02T09:00:13.256Z,96198.66
2023-07-02T09:02:40.198Z,96197.41
2023-07-02T09:05:07.830Z,96196.47
2023-07-02T09:07:51.858Z,96196.56
2023-07-02T09:10:31.372Z,96195.34
2023-07-02T09:13:10.041Z,96196.44
2023-07-02T09:15:41.750Z,96188.81
2023-07-02T09:18:19.025Z,96192.66
2023-07-02T09:20:46.303Z,96203.06
2023-07-02T09:23:13.574Z,96191.00
2023-07-02T09:25:41.911Z,96196.28
2023-07-02T09:28:35.248Z,96185.59
2023-07-02T09:31:02.168Z,96190.84
2023-07-02T09:33:30.070Z,96189.69
2023-07-02T09:35:57.228Z,96194.72
2023-07-02T09:38:24.591Z,96198.22
2023-07-02T09:40:53.691Z,96189.38
2023-07-02T09:43:22.360Z,96193.53
2023-07-02T09:45:51.688Z,96186.66
2023-07-02T09:48:21.414Z,96185.03
2023-07-02T09:50:53.116Z,96197.81
2023-07-02T09:53:20.108Z,96193.59
2023-07-02T09:55:46.971Z,96191.84
2023-07-02T09:58:14.033Z,96191.94
2023-07-02T10:00:41.840Z,96193.53
2023-07-02T10:03:08.918Z,96186.00
2023-07-02T10:05:36.062Z,96183.69
2023-07-02T10:08:19.138Z,96188.13
2023-07-02T10:10:46.348Z,96189.28
2023-07-02T10:13:13.396Z,96185.03
2023-07-02T10:15:41.221Z,96189.16
2023-07-02T10:18:08.428Z,96192.09
2023-07-02T10:20:41.600Z,96194.03
2023-07-02T10:23:10.497Z,96195.59
2023-07-02T10:25:40.135Z,96186.84
2023-07-02T10:28:20.652Z,96183.84
2023-07-02T10:30:48.015Z,96168.91
2023-07-02T10:33:19.602Z,96175.56
2023-07-02T10:35:50.701Z,96171.16
2023-07-02T10:38:26.081Z,96169.19
2023-07-02T10:41:04.279Z,96172.56
2023-07-02T10:43:33.348Z,96165.53
2023-07-02T10:46:02.054Z,96165.78
2023-07-02T10:48:29.894Z,96160.25
2023-07-02T10:50:56.965Z,96149.69
2023-07-02T10:53:25.128Z,96160.13
2023-07-02T10:55:57.443Z,96155.09
2023-07-02T10:58:25.580Z,96159.66
2023-07-02T11:00:53.442Z,96151.72
2023-07-02T11:03:22.101Z,96156.59
2023-07-02T11:05:50.818Z,96159.78
2023-07-02T11:08:18.814Z,96159.16
2023-07-02T11:10:45.811Z,96165.31
2023-07-02T11:13:20.261Z,96162.38
2023-07-02T11:15:47.960Z,96150.47
2023-07-02T11:18:18.313Z,96147.72
2023-07-02T11:20:47.166Z,96153.78
2023-07-02T11:23:26.239Z,96160.59
2023-07-02T11:26:04.082Z,96151.69
2023-07-02T11:28:33.251Z,96149.50
2023-07-02T11:31:00.614Z,96148.06
2023-07-02T11:33:42.976Z,96137.31
2023-07-02T11:36:25.541Z,96150.03
2023-07-02T11:38:53.304Z,96143.47
2023-07-02T11:41:22.148Z,96146.66
2023-07-02T11:43:49.303Z,96142.94
2023-07-02T11:46:17.356Z,96135.63
2023-07-02T11:48:44.461Z,96133.22
2023-07-02T11:51:11.605Z,96138.34
2023-07-02T11:53:38.535Z,96126.47
2023-07-02T11:56:05.498Z,96126.13
2023-07-02T11:58:32.446Z,96131.59
2023-07-02T12:00:59.317Z,96126.00
2023-07-02T12:03:26.373Z,96123.31
2023-07-02T12:05:53.434Z,96111.38
2023-07-02T12:08:20.387Z,96117.78
2023-07-02T12:10:47.328Z,96117.53
2023-07-02T12:13:14.289Z,96122.06
2023-07-02T12:15:41.250Z,96120.78
2023-07-02T12:18:09.144Z,96111.97
2023-07-02T12:20:36.178Z,96118.16
2023-07-02T12:23:03.060Z,96117.88
2023-07-02T12:25:29.992Z,96112.16
2023-07-02T12:27:56.948Z,96101.50
2023-07-02T12:30:23.937Z,96097.06
2023-07-02T12:32:50.855Z,96094.47
2023-07-02T12:35:17.837Z,96096.06
2023-07-02T12:37:53.702Z,96096.59
2023-07-02T12:40:21.732Z,96098.00
2023-07-02T12:42:50.693Z,96088.78
2023-07-02T12:45:21.148Z,96094.28
2023-07-02T12:47:49.233Z,96096.25
2023-07-02T12:50:16.424Z,96092.59
2023-07-02T12:52:43.424Z,96082.41
2023-07-02T12:55:10.429Z,96089.88
2023-07-02T12:57:37.382Z,96087.72
2023-07-02T13:00:07.459Z,96080.44
2023-07-02T13:02:39.295Z,96088.78
2023-07-02T13:05:15.057Z,96090.41
2023-07-02T13:07:42.196Z,96084.34
2023-07-02T13:10:09.234Z,96078.75
2023-07-02T13:12:36.160Z,96084.28
2023-07-02T13:15:03.135Z,96075.94
2023-07-02T13:17:30.076Z,96069.69
2023-07-02T13:19:57.404Z,96074.41
2023-07-02T13:22:24.302Z,96074.47
2023-07-02T13:24:51.160Z,96068.53
2023-07-02T13:27:20.199Z,96071.38
2023-07-02T13:29:47.196Z,96079.91
2023-07-02T13:32:14.149Z,96079.78
2023-07-02T13:34:41.079Z,96079.50
2023-07-02T13:37:09.761Z,96084.72
2023-07-02T13:39:36.711Z,96073.09
2023-07-02T13:42:03.825Z,96073.28
2023-07-02T13:44:30.750Z,96078.69
2023-07-02T13:46:57.712Z,96078.06
2023-07-02T13:49:24.636Z,96080.84
2023-07-02T13:51:51.854Z,96081.94
2023-07-02T13:54:19.830Z,96078.28
2023-07-02T13:56:50.446Z,96074.28
2023-07-02T13:59:18.928Z,96071.69
2023-07-02T14:01:47.263Z,96067.66
2023-07-02T14:04:15.778Z,96083.56
2023-07-02T14:06:42.788Z,96064.91
2023-07-02T14:09:10.584Z,96073.25
2023-07-02T14:11:41.652Z,96071.47
2023-07-02T14:14:09.177Z,96074.16
2023-07-02T14:16:36.255Z,96074.75
2023-07-02T14:19:03.299Z,96073.28
2023-07-02T14:21:30.268Z,96069.25
2023-07-02T14:23:57.916Z,96069.28
2023-07-02T14:26:24.807Z,96069.97
2023-07-02T14:28:51.742Z,96061.75
2023-07-02T14:31:18.680Z,96052.88
2023-07-02T14:33:45.693Z,96060.59
2023-07-02T14:36:12.612Z,96054.81
2023-07-02T14:38:39.596Z,96059.22
2023-07-02T14:41:06.518Z,96060.16
2023-07-02T14:43:33.496Z,96063.09
2023-07-02T14:46:03.810Z,96067.56
2023-07-02T14:48:30.963Z,96061.22
2023-07-02T14:51:00.908Z,96059.78
2023-07-02T14:53:29.531Z,96063.16
2023-07-02T14:56:00.234Z,96051.31
2023-07-02T14:58:28.865Z,96048.53
2023-07-02T15:00:58.392Z,96053.59
2023-07-02T15:03:27.622Z,96059.66
2023-07-02T15:05:54.917Z,96059.66
2023-07-02T15:08:22.719Z,96058.44
2023-07-02T15:10:53.738Z,96050.06
2023-07-02T15:13:24.711Z,96051.78
2023-07-02T15:15:52.777Z,96050.91
2023-07-02T15:18:21.413Z,96053.97
2023-07-02T15:20:52.312Z,96047.00
2023-07-02T15:23:19.333Z,96058.53
2023-07-02T15:25:56.070Z,96054.69
2023-07-02T15:28:24.378Z,96055.22
2023-07-02T15:31:00.660Z,96054.38
2023-07-02T15:33:28.690Z,96058.09
2023-07-02T15:35:56.021Z,96064.88
2023-07-02T15:38:22.930Z,96057.41
2023-07-02T15:40:50.295Z,96066.22
2023-07-02T15:43:17.337Z,96060.88
2023-07-02T15:45:44.257Z,96051.59
2023-07-02T15:48:11.187Z,96054.16
2023-07-02T15:50:38.616Z,96060.69
2023-07-02T15:53:05.868Z,96048.50
2023-07-02T15:55:36.457Z,96043.03
2023-07-02T15:58:03.737Z,96047.66
2023-07-02T16:00:30.765Z,96039.03
2023-07-02T16:02:57.959Z,96051.53
2023-07-02T16:05:25.602Z,96044.03
2023-07-02T16:07:52.781Z,96056.81
2023-07-02T16:10:19.886Z,96049.28
2023-07-02T16:12:46.899Z,96052.00
2023-07-02T16:15:13.802Z,96044.06
2023-07-02T16:17:40.798Z,96046.47
2023-07-02T16:20:08.306Z,96046.53
2023-07-02T16:22:35.319Z,96046.59
2023-07-02T16:25:02.870Z,96055.69
2023-07-02T16:27:29.798Z,96052.19
2023-07-02T16:29:58.052Z,96037.50
2023-07-02T16:32:27.693Z,96050.38
2023-07-02T16:34:54.644Z,96055.72
2023-07-02T16:37:22.177Z,96053.25
2023-07-02T16:39:49.575Z,96047.22
2023-07-02T16:42:16.552Z,96042.59
2023-07-02T16:44:43.465Z,96050.22
2023-07-02T16:47:10.378Z,96033.69
2023-07-02T16:49:37.275Z,96043.22
2023-07-02T16:52:04.622Z,96053.94
2023-07-02T16:54:31.654Z,96038.47
2023-07-02T16:57:01.256Z,96048.38
2023-07-02T16:59:31.773Z,96043.81
2023-07-02T17:02:00.283Z,96052.44
2023-07-02T17:04:28.500Z,96050.72
2023-07-02T17:06:58.802Z,96049.47
2023-07-02T17:09:36.522Z,96054.13
2023-07-02T17:12:07.036Z,96055.94
2023-07-02T17:14:37.572Z,96048.72
2023-07-02T17:17:09.319Z,96047.50
2023-07-02T17:19:42.946Z,96051.81
2023-07-02T17:22:17.191Z,96053.03
2023-07-02T17:24:47.007Z,96055.47
2023-07-02T17:27:17.742Z,96049.50
2023-07-02T17:29:56.893Z,96049.09
2023-07-02T17:32:24.573Z,96048.44
2023-07-02T17:34:51.869Z,96048.03
2023-07-02T17:37:21.232Z,96057.94
2023-07-02T17:39:49.629Z,96050.94
2023-07-02T17:42:18.433Z,96053.34
2023-07-02T17:44:48.146Z,96049.75
2023-07-02T17:47:19.394Z,96050.38
2023-07-02T17:49:48.449Z,96045.75
2023-07-02T17:52:18.976Z,96046.16
2023-07-02T17:54:57.130Z,96051.53
2023-07-02T17:57:25.063Z,96045.94
2023-07-02T17:59:56.562Z,96042.50
2023-07-02T18:02:27.880Z,96051.72
2023-07-02T18:04:55.076Z,96048.13
2023-07-02T18:07:22.173Z,96045.44
2023-07-02T18:09:51.398Z,96057.94
2023-07-02T18:12:24.830Z,96058.41
2023-07-02T18:14:53.024Z,96058.00
2023-07-02T18:17:20.806Z,96066.09
2023-07-02T18:19:47.749Z,96062.94
2023-07-02T18:22:14.710Z,96057.78
2023-07-02T18:24:59.111Z,96059.09
2023-07-02T18:27:26.117Z,96061.28
2023-07-02T18:29:53.054Z,96062.47
2023-07-02T18:32:20.003Z,96074.03
2023-07-02T18:34:48.312Z,96069.03
2023-07-02T18:37:15.469Z,96061.41
2023-07-02T18:39:42.865Z,96068.13
2023-07-02T18:42:11.900Z,96073.25
2023-07-02T18:44:39.754Z,96072.94
2023-07-02T18:47:13.394Z,96079.84
2023-07-02T18:49:41.847Z,96082.41
2023-07-02T18:52:16.530Z,96070.56
2023-07-02T18:54:44.173Z,96075.63
2023-07-02T18:57:13.039Z,96081.41
2023-07-02T18:59:48.516Z,96078.94
2023-07-02T19:02:16.494Z,96084.19
2023-07-02T19:04:54.952Z,96085.13
2023-07-02T19:07:24.033Z,96086.38
2023-07-02T19:09:50.929Z,96083.25
2023-07-02T19:12:17.830Z,96093.22
2023-07-02T19:14:44.825Z,96089.59
2023-07-02T19:17:14.882Z,96098.56
2023-07-02T19:19:43.576Z,96096.47
2023-07-02T19:22:13.262Z,96100.53
2023-07-02T19:24:40.654Z,96103.56
2023-07-02T19:27:11.121Z,96108.94
2023-07-02T19:29:38.579Z,96106.25
2023-07-02T19:32:06.351Z,96109.72
2023-07-02T19:34:33.991Z,96110.06
2023-07-02T19:37:01.147Z,96108.75
2023-07-02T19:39:29.033Z,96119.44
2023-07-02T19:41:56.234Z,96121.09
2023-07-02T19:44:23.230Z,96127.53
2023-07-02T19:46:50.194Z,96128.88
2023-07-02T19:49:18.029Z,96132.38
2023-07-02T19:51:52.008Z,96127.88
2023-07-02T19:54:20.392Z,96144.47
2023-07-02T19:56:49.616Z,96144.47
2023-07-02T19:59:17.816Z,96141.78
2023-07-02T20:01:45.076Z,96143.41
2023-07-02T20:04:21.955Z,96137.00
2023-07-02T20:06:49.803Z,96143.94
2023-07-02T20:09:17.029Z,96152.53
2023-07-02T20:11:44.010Z,96162.94
2023-07-02T20:14:10.993Z,96157.03
2023-07-02T20:16:37.935Z,96158.13
2023-07-02T20:19:04.886Z,96164.28
2023-07-02T20:21:31.848Z,96170.13
2023-07-02T20:23:59.538Z,96170.88
2023-07-02T20:26:27.210Z,96167.94
2023-07-02T20:28:54.115Z,96174.31
2023-07-02T20:31:21.340Z,96175.88
2023-07-02T20:33:48.312Z,96175.34
2023-07-02T20:36:15.784Z,96174.00
2023-07-02T20:38:43.039Z,96173.72
2023-07-02T20:41:11.945Z,96182.00
2023-07-02T20:43:44.560Z,96176.94
2023-07-02T20:46:11.904Z,96183.09
2023-07-02T20:48:44.580Z,96179.06
2023-07-02T20:51:11.767Z,96176.13
2023-07-02T20:53:38.752Z,96185.00
2023-07-02T20:56:06.310Z,96185.53
2023-07-02T20:58:33.286Z,96188.75
2023-07-02T21:01:08.798Z,96195.69
2023-07-02T21:03:36.380Z,96181.78
2023-07-02T21:06:11.981Z,96184.97
2023-07-02T21:08:38.940Z,96187.38
2023-07-02T21:11:16.527Z,96189.75
2023-07-02T21:13:51.116Z,96186.00
2023-07-02T21:16:18.216Z,96200.41
2023-07-02T21:18:45.264Z,96205.75
2023-07-02T21:21:12.196Z,96198.28
2023-07-02T21:23:39.135Z,96198.78
2023-07-02T21:26:06.281Z,96205.69
2023-07-02T21:28:34.570Z,96207.81
2023-07-02T21:31:01.705Z,96215.50
2023-07-02T21:33:28.682Z,96216.31
2023-07-02T21:36:01.031Z,96213.59
2023-07-02T21:38:28.227Z,96208.78
2023-07-02T21:40:55.119Z,96215.94
2023-07-02T21:43:22.020Z,96214.03
2023-07-02T21:45:56.746Z,96218.75
2023-07-02T21:48:23.884Z,96214.72
2023-07-02T21:50:51.026Z,96217.56
2023-07-02T21:53:17.906Z,96221.81
2023-07-02T21:55:44.760Z,96220.69
2023-07-02T21:58:11.624Z,96229.25
2023-07-02T22:00:38.527Z,96228.16
2023-07-02T22:03:05.406Z,96230.34
2023-07-02T22:05:32.284Z,96239.41
2023-07-02T22:07:59.286Z,96231.16
2023-07-02T22:10:31.043Z,96238.66
2023-07-02T22:13:03.831Z,96228.25
2023-07-02T22:15:31.042Z,96229.84
2023-07-02T22:18:03.044Z,96236.78
2023-07-02T22:20:34.770Z,96237.75
2023-07-02T22:23:01.982Z,96229.16
2023-07-02T22:25:29.056Z,96237.06
2023-07-02T22:27:56.758Z,96233.22
2023-07-02T22:30:24.545Z,96242.16
2023-07-02T22:32:51.814Z,96238.66
2023-07-02T22:35:19.347Z,96242.06
2023-07-02T22:37:47.120Z,96245.47
2023-07-02T22:40:17.046Z,96244.31
2023-07-02T22:42:45.737Z,96242.94
2023-07-02T22:45:15.313Z,96239.91
2023-07-02T22:47:43.338Z,96242.84
2023-07-02T22:50:13.080Z,96233.94
2023-07-02T22:52:40.505Z,96229.06
2023-07-02T22:55:08.075Z,96240.00
2023-07-02T22:57:36.141Z,96244.34
2023-07-02T23:00:13.115Z,96238.53
2023-07-02T23:02:45.555Z,96240.00
2023-07-02T23:05:17.458Z,96241.09
2023-07-02T23:07:45.517Z,96241.72
2023-07-02T23:10:14.462Z,96230.53
2023-07-02T23:12:44.021Z,96239.16
2023-07-02T23:15:16.200Z,96233.75
2023-07-02T23:17:54.947Z,96237.97
2023-07-02T23:20:23.231Z,96233.22
2023-07-02T23:22:52.075Z,96225.66
2023-07-02T23:25:24.613Z,96235.78
2023-07-02T23:28:03.523Z,96237.34
2023-07-02T23:30:39.717Z,96239.97
2023-07-02T23:33:10.921Z,96239.72
2023-07-02T23:35:38.920Z,96241.44
2023-07-02T23:38:07.315Z,96239.28
2023-07-02T23:40:35.628Z,96232.84
2023-07-02T23:43:03.572Z,96235.59
2023-07-02T23:45:33.504Z,96235.13
2023-07-02T23:48:00.448Z,96238.31
2023-07-02T23:50:27.719Z,96235.81
2023-07-02T23:52:54.636Z,96248.25
2023-07-02T23:55:21.604Z,96256.94
2023-07-02T23:57:48.515Z,96251.19
